Terminal Aerodrome Forecast
Issued by NWS Medford, OR

Home | Current Version | Previous Version | Text Only | Print | Product List | Glossary On
Versions: 1 2 3 4 5 6 7 8 9 10 11 12 13
725
FTUS46 KMFR 201750
TAFMFR
TAF
KMFR 201750Z 2018/2118 VRB03KT 5SM -SHRA FEW007 BKN035 OVC050
     FM201900 26004KT P6SM -SHRA SCT025 OVC050
     FM210000 VRB03KT P6SM OVC050
     FM211100 14005KT P6SM -RA OVC050=

USA.gov is the U.S. government's official web portal to all federal, state and local government web resources and services.